Time;durP1;ratioP1;P1;durP2;ratioP2;P2;SDS_P1;SDS_P2;PMS_P1;PMS_P2;Temp;Humidity;BMP_temperature;BMP_pressure;BME280_temperature;BME280_humidity;BME280_pressure;Samples;Min_cycle;Max_cycle;Signal;HPM_P1;HPM_P2
2022/09/23 00:01:01;;;;;;;3.65;2.83;;;7.50;99.90;;;6.90;100.00;97499.47;5049946;28;20405;-46
2022/09/23 00:03:28;;;;;;;3.60;2.30;;;7.40;99.90;;;6.88;100.00;97493.41;5052693;28;20028;-46
2022/09/23 00:06:03;;;;;;;6.78;2.83;;;7.50;99.90;;;6.87;100.00;97500.41;5048859;28;20035;-49
2022/09/23 00:08:29;;;;;;;3.50;2.67;;;7.40;99.90;;;6.87;100.00;97497.78;5050993;28;20424;-49
2022/09/23 00:10:55;;;;;;;3.97;2.83;;;7.40;99.90;;;6.86;100.00;97500.44;5040638;28;20040;-48
2022/09/23 00:13:23;;;;;;;3.67;2.25;;;7.40;99.90;;;6.87;100.00;97497.78;5051342;28;20033;-48
2022/09/23 00:15:49;;;;;;;4.30;2.95;;;7.40;99.90;;;6.86;100.00;97488.19;5048142;28;20746;-47
2022/09/23 00:18:16;;;;;;;5.03;3.05;;;7.40;99.90;;;6.83;100.00;97490.00;5054374;28;20030;-49
2022/09/23 00:20:43;;;;;;;4.88;2.92;;;7.40;99.90;;;6.77;100.00;97503.25;5049481;28;20029;-46
2022/09/23 00:23:09;;;;;;;2.88;2.40;;;7.40;99.90;;;6.73;100.00;97488.47;5049212;28;20028;-47
2022/09/23 00:25:34;;;;;;;4.57;2.95;;;7.30;99.90;;;6.73;100.00;97491.97;5052170;28;20032;-49
2022/09/23 00:28:02;;;;;;;5.60;3.13;;;7.30;99.90;;;6.69;100.00;97498.16;5058109;28;20026;-46
2022/09/23 00:30:28;;;;;;;5.25;3.05;;;7.30;99.90;;;6.58;100.00;97489.63;5052029;28;20124;-49
2022/09/23 00:32:55;;;;;;;5.70;3.15;;;7.20;99.90;;;6.57;100.00;97494.03;5055501;28;20036;-46
2022/09/23 00:35:22;;;;;;;4.05;3.17;;;7.20;99.90;;;6.53;100.00;97492.34;5051710;28;20032;-48
2022/09/23 00:37:47;;;;;;;4.25;3.05;;;7.10;99.90;;;6.48;100.00;97488.97;5041985;28;20589;-46
2022/09/23 00:40:13;;;;;;;3.72;3.15;;;7.10;99.90;;;6.47;100.00;97501.19;5051098;28;20025;-46
2022/09/23 00:42:47;;;;;;;5.30;3.28;;;7.00;99.90;;;6.44;100.00;97493.41;5044854;28;20036;-47
2022/09/23 00:45:14;;;;;;;4.47;3.35;;;7.10;99.90;;;6.43;100.00;97485.56;5048974;28;20024;-48
2022/09/23 00:47:50;;;;;;;3.70;2.95;;;7.00;99.90;;;6.38;100.00;97482.16;5050810;28;20029;-47
2022/09/23 00:50:42;;;;;;;5.32;3.65;;;7.00;99.90;;;6.37;100.00;97481.31;5053278;28;20184;-46
2022/09/23 00:53:14;;;;;;;3.90;3.40;;;7.00;99.90;;;6.34;100.00;97480.50;5045261;28;20040;-48
2022/09/23 00:55:49;;;;;;;;;;;6.90;99.90;;;6.30;100.00;97482.31;5043892;28;20032;-47
2022/09/23 00:58:19;;;;;;;5.13;3.60;;;6.90;99.90;;;6.29;100.00;97483.19;5052650;28;20197;-46
2022/09/23 01:00:45;;;;;;;4.68;3.53;;;6.90;99.90;;;6.28;100.00;97474.50;5041911;28;20125;-49
2022/09/23 01:03:12;;;;;;;4.40;3.50;;;6.90;99.90;;;6.21;100.00;97472.00;5050846;28;20032;-46
2022/09/23 01:05:38;;;;;;;7.72;3.58;;;6.90;99.90;;;6.23;100.00;97478.09;5048402;28;20087;-47
2022/09/23 01:08:08;;;;;;;3.75;3.22;;;6.80;99.90;;;6.20;100.00;97479.00;5050579;28;20705;-46
2022/09/23 01:10:48;;;;;;;6.63;3.70;;;6.80;99.90;;;6.18;100.00;97472.91;5047262;28;20034;-46
2022/09/23 01:13:39;;;;;;;4.10;3.22;;;6.80;99.90;;;6.16;100.00;97471.22;5049037;28;20034;-48
2022/09/23 01:16:26;;;;;;;6.57;3.92;;;6.70;99.90;;;6.14;100.00;97473.00;5044424;28;20485;-50
2022/09/23 01:19:23;;;;;;;5.82;3.85;;;6.70;99.90;;;6.14;100.00;97473.88;5048889;28;20166;-47
2022/09/23 01:22:08;;;;;;;4.38;3.50;;;6.70;99.90;;;6.10;100.00;97473.06;5044802;28;20494;-46
2022/09/23 01:24:46;;;;;;;5.03;3.22;;;6.70;99.90;;;6.08;100.00;97464.38;5044787;28;20142;-48
2022/09/23 01:27:43;;;;;;;4.25;3.65;;;6.70;99.90;;;6.04;100.00;97473.16;5048411;28;20286;-47
2022/09/23 01:30:38;;;;;;;4.38;3.33;;;6.60;99.90;;;6.02;100.00;97466.25;5050298;22;20486;-38
2022/09/23 01:33:24;;;;;;;6.53;3.95;;;6.60;99.90;;;6.00;100.00;97465.41;5005761;28;20037;-38
2022/09/23 01:36:12;;;;;;;6.60;4.40;;;6.60;99.90;;;5.93;100.00;97448.91;5008415;28;20025;-38
2022/09/23 01:38:48;;;;;;;5.53;4.10;;;6.60;99.90;;;6.00;100.00;97462.78;5023082;28;20025;-39
2022/09/23 01:41:42;;;;;;;5.68;3.50;;;6.60;99.90;;;5.98;100.00;97451.47;5010830;28;20037;-39
2022/09/23 01:44:24;;;;;;;7.05;3.90;;;6.60;99.90;;;5.95;100.00;97452.34;5030786;28;20078;-39
2022/09/23 01:47:10;;;;;;;4.60;3.90;;;6.50;99.90;;;5.89;100.00;97440.25;5026516;28;20933;-39
2022/09/23 01:53:11;;;;;;;5.43;3.80;;;6.50;99.90;;;5.92;100.00;97441.94;5009953;28;20091;-39
2022/09/23 01:55:46;;;;;;;4.93;3.70;;;6.50;99.90;;;5.86;100.00;97442.03;5004348;28;20032;-39
2022/09/23 01:58:40;;;;;;;5.55;4.20;;;6.50;99.90;;;5.86;100.00;97442.03;5009358;28;20262;-40
2022/09/23 02:01:09;;;;;;;5.70;3.80;;;6.50;99.90;;;5.79;100.00;97436.03;5022372;28;20047;-40
2022/09/23 02:04:07;;;;;;;5.38;3.90;;;6.40;99.90;;;5.81;100.00;97444.72;5011573;28;20086;-40
2022/09/23 02:06:45;;;;;;;4.53;3.53;;;6.40;99.90;;;5.80;100.00;97437.78;5022279;28;20083;-39
2022/09/23 02:09:16;;;;;;;5.47;3.63;;;6.40;99.90;;;5.78;100.00;97430.84;5029425;28;20075;-39
2022/09/23 02:11:46;;;;;;;5.18;4.03;;;6.40;99.90;;;5.82;100.00;97438.63;5023085;28;20030;-38
2022/09/23 02:14:28;;;;;;;5.88;3.72;;;6.40;99.90;;;5.85;100.00;97437.69;5011068;28;20033;-39
2022/09/23 02:17:00;;;;;;;4.65;3.53;;;6.40;99.90;;;5.87;100.00;97439.41;5026473;28;20494;-38
2022/09/23 02:19:47;;;;;;;5.43;4.07;;;6.50;99.90;;;5.87;100.00;97431.56;5011945;28;20071;-38
2022/09/23 02:22:45;;;;;;;5.70;3.83;;;6.50;99.90;;;5.87;100.00;97423.69;5015161;28;20490;-39
2022/09/23 02:25:11;;;;;;;7.97;4.35;;;6.50;99.90;;;5.89;100.00;97437.63;5027615;28;20853;-40
2022/09/23 02:27:54;;;;;;;6.63;4.10;;;6.50;99.90;;;5.88;100.00;97429.78;5009582;28;20025;-40
2022/09/23 02:30:26;;;;;;;5.15;3.80;;;6.50;99.90;;;5.94;100.00;97434.94;5028513;28;20110;-39
2022/09/23 02:33:03;;;;;;;5.15;3.60;;;6.60;99.90;;;5.98;100.00;97441.00;5008890;28;20029;-39
2022/09/23 02:35:35;;;;;;;5.20;3.97;;;6.60;99.90;;;5.93;100.00;97433.19;5008053;28;20044;-39
2022/09/23 02:38:28;;;;;;;5.07;3.80;;;6.50;99.90;;;5.87;100.00;97428.94;5013383;28;20033;-39
2022/09/23 02:41:31;;;;;;;5.35;4.10;;;6.50;99.90;;;5.81;100.00;97436.88;5004184;28;20556;-38
2022/09/23 02:44:06;;;;;;;7.28;3.90;;;6.40;99.90;;;5.76;100.00;97427.38;5023050;28;20060;-39
2022/09/23 02:46:33;;;;;;;4.97;3.90;;;6.30;99.90;;;5.72;100.00;97429.19;5006413;28;20500;-39
2022/09/23 02:49:12;;;;;;;4.60;3.50;;;6.30;99.90;;;5.67;100.00;97431.03;5010064;28;20063;-39
2022/09/23 02:51:39;;;;;;;5.28;3.58;;;6.30;99.90;;;5.58;100.00;97416.38;5013238;28;20053;-39
2022/09/23 02:54:09;;;;;;;5.28;3.30;;;6.30;99.90;;;5.59;100.00;97423.31;5024854;28;20049;-39
2022/09/23 02:56:36;;;;;;;5.55;3.60;;;6.20;99.90;;;5.42;100.00;97400.06;5008743;28;20059;-39
2022/09/23 02:59:03;;;;;;;5.55;3.60;;;6.20;99.90;;;5.57;100.00;97425.09;5024084;28;20036;-39
2022/09/23 03:02:08;;;;;;;4.28;3.50;;;6.20;99.90;;;5.57;100.00;97413.78;5032093;28;20037;-39
2022/09/23 03:05:05;;;;;;;6.25;3.47;;;6.20;99.90;;;5.55;100.00;97414.66;5028923;28;20035;-39
2022/09/23 03:08:01;;;;;;;3.72;3.28;;;6.10;99.90;;;5.53;100.00;97413.81;5024945;28;20048;-39
2022/09/23 03:10:46;;;;;;;4.25;3.35;;;6.10;99.90;;;5.49;100.00;97412.16;5030559;28;20040;-39
2022/09/23 03:13:33;;;;;;;4.38;3.58;;;6.10;99.90;;;5.49;100.00;97411.25;5029919;28;20102;-39
2022/09/23 03:16:10;;;;;;;4.80;3.72;;;6.10;99.90;;;5.44;100.00;97403.50;5021883;28;20032;-39
2022/09/23 03:19:18;;;;;;;4.28;3.47;;;6.10;99.90;;;5.41;100.00;97408.78;5025551;28;20033;-39
2022/09/23 03:22:07;;;;;;;5.65;3.60;;;6.00;99.90;;;5.38;100.00;97414.06;4981760;28;20048;-39
2022/09/23 03:24:35;;;;;;;6.97;3.70;;;6.00;99.90;;;5.37;100.00;97411.50;5017588;28;20120;-39
2022/09/23 03:27:10;;;;;;;4.65;3.53;;;6.00;99.90;;;5.35;100.00;97411.50;5011318;28;20091;-39
2022/09/23 03:29:36;;;;;;;6.00;3.60;;;6.00;99.90;;;5.33;100.00;97411.53;5006374;28;20056;-39
2022/09/23 03:32:06;;;;;;;4.20;3.53;;;5.90;99.90;;;5.31;100.00;97408.06;5012014;28;20470;-39
2022/09/23 03:34:35;;;;;;;3.92;3.45;;;5.90;99.90;;;5.20;100.00;97386.44;5011828;28;20405;-39
2022/09/23 03:37:22;;;;;;;5.82;3.70;;;5.90;99.90;;;5.25;100.00;97402.06;5005187;28;20463;-39
2022/09/23 03:40:18;;;;;;;5.43;3.33;;;5.90;99.90;;;5.26;100.00;97399.44;5020206;28;20148;-39
2022/09/23 03:42:45;;;;;;;4.40;3.78;;;5.90;99.90;;;5.35;100.00;97401.03;5006557;28;20091;-39
2022/09/23 03:45:17;;;;;;;3.70;3.20;;;6.00;99.90;;;5.33;100.00;97408.06;5027181;28;20028;-39
2022/09/23 03:47:44;;;;;;;5.43;3.65;;;5.90;99.90;;;5.32;100.00;97398.47;5012238;28;20071;-39
2022/09/23 03:50:12;;;;;;;5.15;3.42;;;5.90;99.90;;;5.30;100.00;97408.09;5026901;28;20037;-39
2022/09/23 03:52:39;;;;;;;5.38;3.60;;;5.90;99.90;;;5.29;100.00;97399.41;5011953;28;23455;-39
2022/09/23 03:55:06;;;;;;;4.68;3.20;;;5.90;99.90;;;5.25;100.00;97397.69;5027251;28;20037;-39
2022/09/23 03:57:32;;;;;;;5.22;3.70;;;5.90;99.90;;;5.26;100.00;97393.34;5011163;28;20502;-39
2022/09/23 03:59:57;;;;;;;5.30;3.42;;;5.90;99.90;;;5.24;100.00;97395.09;5013439;28;20346;-39
2022/09/23 04:02:23;;;;;;;4.63;3.60;;;5.90;99.90;;;5.19;100.00;97394.31;5034178;28;21023;-39
2022/09/23 04:04:49;;;;;;;5.32;3.78;;;5.80;99.90;;;5.21;100.00;97393.41;5032267;28;20509;-39
2022/09/23 04:07:15;;;;;;;5.60;4.05;;;5.80;99.90;;;5.15;100.00;97378.69;5030880;28;20406;-39
2022/09/23 04:09:41;;;;;;;4.53;3.58;;;5.80;99.90;;;5.12;100.00;97375.25;5032658;28;20028;-39
2022/09/23 04:12:11;;;;;;;5.07;3.28;;;5.80;99.90;;;5.12;100.00;97378.72;5023322;28;20104;-39
2022/09/23 04:14:37;;;;;;;4.63;3.47;;;5.70;99.90;;;5.11;100.00;97378.75;5006216;28;20057;-39
2022/09/23 04:17:03;;;;;;;5.28;3.70;;;5.70;99.90;;;5.11;100.00;97374.38;5031046;28;20033;-39
2022/09/23 04:19:29;;;;;;;4.90;3.45;;;5.70;99.90;;;5.05;100.00;97365.78;5032768;28;20047;-39
2022/09/23 04:21:55;;;;;;;5.78;4.03;;;5.70;99.90;;;4.92;100.00;97341.59;5029138;28;20037;-39
2022/09/23 04:24:20;;;;;;;4.57;3.58;;;5.70;99.90;;;5.04;100.00;97372.75;5035255;28;20505;-39
2022/09/23 04:26:53;;;;;;;9.27;3.80;;;5.70;99.90;;;5.02;100.00;97368.44;5028532;28;20021;-39
2022/09/23 04:29:20;;;;;;;4.90;3.47;;;5.60;99.90;;;5.02;100.00;97368.44;5034009;28;20320;-39
2022/09/23 04:31:46;;;;;;;6.43;3.60;;;5.60;99.90;;;5.00;100.00;97370.22;5033628;28;20331;-39
2022/09/23 04:34:14;;;;;;;4.55;3.75;;;5.60;99.90;;;4.94;100.00;97356.34;5032750;28;20409;-39
2022/09/23 04:36:41;;;;;;;5.07;3.97;;;5.60;99.90;;;4.88;100.00;97353.84;5027414;28;20036;-39
2022/09/23 04:39:07;;;;;;;5.28;4.05;;;5.60;99.90;;;4.94;100.00;97372.03;5026474;28;20249;-39
2022/09/23 04:41:33;;;;;;;4.80;3.92;;;5.60;99.90;;;4.94;100.00;97372.03;5029133;28;20161;-39
2022/09/23 04:43:58;;;;;;;6.88;4.20;;;5.60;99.90;;;4.96;100.00;97372.88;5020171;28;20228;-39
2022/09/23 04:46:24;;;;;;;4.65;3.85;;;5.60;99.90;;;4.94;100.00;97372.03;5021833;28;20037;-39
2022/09/23 04:48:50;;;;;;;4.85;3.95;;;5.60;99.90;;;4.96;100.00;97377.25;5032402;28;20482;-39
2022/09/23 04:51:20;;;;;;;7.00;4.38;;;5.60;99.90;;;4.91;100.00;97368.59;5036453;28;20036;-39
2022/09/23 04:53:48;;;;;;;5.85;4.25;;;5.60;99.90;;;4.97;100.00;97373.72;5037359;28;20609;-39
2022/09/23 04:56:21;;;;;;;5.28;4.05;;;5.60;99.90;;;4.96;100.00;97366.78;5035373;28;20079;-39
2022/09/23 04:58:47;;;;;;;5.28;3.78;;;5.60;99.90;;;4.93;100.00;97374.66;5011445;28;20156;-39
2022/09/23 05:01:23;;;;;;;5.95;3.72;;;5.60;99.90;;;4.93;100.00;97374.66;5030672;28;20095;-39
2022/09/23 05:03:51;;;;;;;6.28;4.30;;;5.60;99.90;;;4.93;100.00;97370.28;5031114;28;20033;-39
2022/09/23 05:06:16;;;;;;;7.43;4.70;;;5.60;99.90;;;4.92;100.00;97376.41;5007916;28;20032;-39
2022/09/23 05:08:53;;;;;;;5.50;4.20;;;5.60;99.90;;;4.93;100.00;97377.28;5017154;28;20041;-39
2022/09/23 05:11:20;;;;;;;8.25;4.38;;;5.60;99.90;;;4.65;100.00;97335.88;5020454;28;20041;-39
2022/09/23 05:13:48;;;;;;;6.97;4.57;;;5.60;99.90;;;4.94;100.00;97385.09;5026600;28;20033;-38
2022/09/23 05:16:14;;;;;;;6.68;4.75;;;5.60;99.90;;;4.93;100.00;97390.34;5022353;28;20069;-39
2022/09/23 05:18:41;;;;;;;9.20;5.97;;;5.60;99.90;;;4.96;100.00;97396.38;5022354;28;20028;-39
2022/09/23 05:21:17;;;;;;;11.25;6.60;;;5.60;99.90;;;4.98;100.00;97396.38;5009724;28;20357;-40
2022/09/23 05:23:55;;;;;;;10.98;6.15;;;5.60;99.90;;;5.00;100.00;97397.22;5032405;28;20056;-39
2022/09/23 05:26:24;;;;;;;8.48;5.32;;;5.60;99.90;;;5.02;100.00;97389.34;5026072;28;20603;-39
2022/09/23 05:28:50;;;;;;;6.55;4.80;;;5.70;99.90;;;5.07;100.00;97387.53;5028441;28;20640;-39
2022/09/23 05:31:19;;;;;;;8.45;5.20;;;5.70;99.90;;;5.10;100.00;97392.72;5028436;28;20051;-39
2022/09/23 05:33:47;;;;;;;6.68;4.90;;;5.70;99.90;;;5.16;100.00;97388.25;5014526;28;20571;-39
2022/09/23 05:36:15;;;;;;;7.00;5.00;;;5.80;99.90;;;5.23;100.00;97386.41;5029543;28;20557;-39
2022/09/23 05:38:41;;;;;;;8.75;4.78;;;5.90;99.90;;;5.25;100.00;97382.00;5034309;28;22283;-39
2022/09/23 05:41:11;;;;;;;7.90;4.80;;;5.90;99.90;;;5.33;100.00;97384.53;5028207;28;20067;-39
2022/09/23 05:43:37;;;;;;;5.72;4.57;;;6.00;99.90;;;5.44;100.00;97392.19;5023594;28;20090;-37
2022/09/23 05:46:16;;;;;;;7.13;5.07;;;6.10;99.90;;;5.50;100.00;97390.31;5026448;28;20029;-37
2022/09/23 05:48:44;;;;;;;7.53;5.45;;;6.20;99.90;;;5.62;100.00;97385.78;5032371;28;20083;-38
2022/09/23 05:51:17;;;;;;;4.95;4.45;;;6.30;99.90;;;5.68;100.00;97383.03;5021047;28;20102;-37
2022/09/23 05:53:44;;;;;;;5.70;4.70;;;6.40;99.90;;;5.83;100.00;97392.38;5027605;28;20040;-37
2022/09/23 05:56:14;;;;;;;8.73;4.82;;;6.50;99.90;;;5.93;100.00;97393.94;5024023;28;20029;-37
2022/09/23 05:58:40;;;;;;;7.00;5.65;;;6.60;99.90;;;6.03;100.00;97390.28;5010709;28;20026;-37
2022/09/23 06:01:20;;;;;;;6.07;5.00;;;6.70;99.90;;;6.14;100.00;97392.72;5019803;28;20091;-38
2022/09/23 06:03:47;;;;;;;6.13;4.75;;;6.80;99.90;;;6.26;100.00;97387.22;5004447;28;20021;-38
2022/09/23 06:06:16;;;;;;;8.18;5.00;;;6.90;99.90;;;6.37;100.00;97386.13;5018846;28;20030;-37
2022/09/23 06:08:43;;;;;;;6.07;4.70;;;7.00;99.90;;;6.47;100.00;97388.53;5028199;28;20032;-38
2022/09/23 06:11:11;;;;;;;9.35;5.35;;;7.20;99.90;;;6.58;100.00;97390.06;5021110;28;20078;-37
2022/09/23 06:13:37;;;;;;;6.22;4.85;;;7.20;99.90;;;6.66;100.00;97388.16;5024561;28;20028;-38
2022/09/23 06:16:06;;;;;;;6.72;4.63;;;7.30;99.90;;;6.79;100.00;97388.75;5022697;28;20033;-37
2022/09/23 06:18:33;;;;;;;5.75;4.80;;;7.50;99.90;;;6.86;100.00;97382.47;5025168;28;20120;-37
2022/09/23 06:21:03;;;;;;;6.03;4.78;;;7.60;99.90;;;7.05;100.00;97388.16;5024745;28;20112;-37
2022/09/23 06:23:29;;;;;;;6.25;4.47;;;7.70;99.90;;;7.14;100.00;97379.19;5027711;28;20044;-38
2022/09/23 06:26:07;;;;;;;8.32;5.03;;;7.80;99.90;;;7.25;100.00;97387.72;5023752;28;20029;-38
2022/09/23 06:28:38;;;;;;;9.32;5.63;;;7.90;99.90;;;7.34;100.00;97379.59;5028193;28;20123;-38
2022/09/23 06:31:07;;;;;;;9.48;5.22;;;8.00;99.90;;;7.39;100.00;97375.13;5026347;28;20036;-38
2022/09/23 06:33:34;;;;;;;8.43;4.78;;;8.10;99.90;;;7.53;100.00;97382.63;5025468;28;20040;-37
2022/09/23 06:36:02;;;;;;;10.07;5.00;;;8.20;99.90;;;7.64;100.00;97374.47;5029966;28;20490;-38
2022/09/23 06:38:29;;;;;;;7.78;4.80;;;8.30;99.90;;;7.75;100.00;97377.72;5030703;28;20033;-38
2022/09/23 06:40:57;;;;;;;7.20;5.07;;;8.40;99.90;;;7.86;100.00;97377.44;5026466;28;20052;-38
2022/09/23 06:43:24;;;;;;;6.38;4.47;;;8.50;99.90;;;7.98;100.00;97386.72;5024401;28;20032;-38
2022/09/23 06:45:58;;;;;;;8.32;4.30;;;8.60;99.90;;;8.08;100.00;97384.72;5026088;28;20079;-38
2022/09/23 06:48:25;;;;;;;10.13;4.65;;;8.70;99.90;;;8.16;100.00;97383.59;5026484;28;20037;-38
2022/09/23 06:50:52;;;;;;;5.85;4.25;;;8.80;99.90;;;8.24;100.00;97386.03;5028256;28;20037;-38
2022/09/23 06:53:22;;;;;;;8.40;4.25;;;8.90;99.90;;;8.34;100.00;97386.63;5030470;28;20033;-37
2022/09/23 06:55:48;;;;;;;6.60;4.03;;;9.00;99.90;;;8.41;100.00;97389.00;5021581;28;20543;-37
2022/09/23 06:58:14;;;;;;;7.15;3.90;;;9.00;99.90;;;8.52;100.00;97391.38;5011556;28;20079;-38
2022/09/23 07:00:40;;;;;;;5.10;4.13;;;9.20;99.90;;;8.66;100.00;97392.75;5029935;28;20041;-38
2022/09/23 07:03:08;;;;;;;7.60;3.80;;;9.30;99.90;;;8.78;100.00;97395.03;5029260;28;20021;-38
2022/09/23 07:05:37;;;;;;;8.40;3.85;;;9.40;99.90;;;8.92;100.00;97398.09;5024201;28;20025;-38
2022/09/23 07:08:07;;;;;;;7.35;4.00;;;9.50;99.90;;;9.07;100.00;97382.75;5010052;28;20029;-38
2022/09/23 07:10:32;;;;;;;4.90;3.50;;;9.70;99.90;;;9.24;100.00;97391.00;5016600;28;20044;-38
2022/09/23 07:13:01;;;;;;;5.28;3.45;;;9.90;99.90;;;9.44;100.00;97389.47;5015567;28;20060;-38
2022/09/23 07:15:27;;;;;;;7.40;4.28;;;10.10;99.90;;;9.57;100.00;97390.78;4989112;28;20036;-38
2022/09/23 07:17:53;;;;;;;4.88;3.50;;;10.20;99.90;;;9.74;100.00;97387.59;5034439;28;20427;-38
2022/09/23 07:20:18;;;;;;;4.32;3.60;;;10.40;99.90;;;9.87;100.00;97380.13;5026304;28;20058;-38
2022/09/23 07:22:50;;;;;;;5.50;3.83;;;10.60;99.90;;;10.11;100.00;97387.19;5032662;28;20208;-38
2022/09/23 07:25:16;;;;;;;7.82;3.97;;;10.70;99.90;;;10.24;100.00;97379.69;5026790;28;20033;-38
2022/09/23 07:27:41;;;;;;;4.88;4.00;;;10.90;99.90;;;10.47;100.00;97388.59;5026734;28;20640;-38
2022/09/23 07:30:07;;;;;;;7.70;3.53;;;11.10;99.90;;;10.67;100.00;97393.13;5057194;22;20056;-38
2022/09/23 07:32:33;;;;;;;6.18;3.85;;;11.30;99.90;;;10.81;100.00;97389.97;5070430;28;20372;-38
2022/09/23 07:34:59;;;;;;;5.90;3.83;;;11.50;99.90;;;10.81;98.53;97364.44;5072527;28;20104;-41
2022/09/23 07:37:24;;;;;;;7.78;4.63;;;11.60;99.90;;;11.14;95.07;97389.56;5071638;28;20072;-41
2022/09/23 07:39:50;;;;;;;5.10;3.10;;;11.70;99.90;;;11.33;95.67;97395.84;5073583;28;20036;-41
2022/09/23 07:42:16;;;;;;;5.22;3.22;;;11.90;99.90;;;11.51;93.93;97390.75;5070539;28;20381;-41
2022/09/23 07:44:44;;;;;;;5.68;3.60;;;12.10;99.90;;;11.59;90.41;97394.81;5065492;28;20036;-41
2022/09/23 07:47:10;;;;;;;5.85;3.25;;;12.20;99.90;;;11.64;88.91;97384.88;5068652;28;20077;-41
2022/09/23 07:49:35;;;;;;;5.18;3.88;;;12.30;99.90;;;11.80;89.33;97389.53;5066260;28;20787;-41
2022/09/23 07:52:02;;;;;;;8.57;3.92;;;12.40;99.90;;;11.89;87.07;97396.22;5066402;28;20063;-41
2022/09/23 07:54:28;;;;;;;5.50;3.53;;;12.50;99.90;;;12.02;87.52;97392.16;5066908;28;20028;-42
2022/09/23 07:56:55;;;;;;;8.32;3.97;;;12.60;99.90;;;12.13;87.21;97399.63;5069547;28;20028;-41
2022/09/23 07:59:20;;;;;;;5.28;2.95;;;12.70;99.90;;;12.25;87.66;97393.81;5067101;28;20028;-41
2022/09/23 08:01:51;;;;;;;6.53;3.83;;;12.80;99.90;;;12.36;85.33;97398.63;5071204;28;20650;-41
2022/09/23 08:04:23;;;;;;;5.95;3.58;;;12.90;99.90;;;12.41;84.60;97405.41;5064254;28;20039;-41
2022/09/23 08:06:56;;;;;;;5.68;3.60;;;12.90;99.90;;;12.47;84.29;97395.50;5069074;28;20032;-39
2022/09/23 08:09:26;;;;;;;10.73;4.03;;;13.00;99.90;;;12.49;83.17;97402.47;5069499;28;20024;-40
2022/09/23 08:11:53;;;;;;;6.82;3.92;;;13.00;99.90;;;12.55;82.42;97402.16;5071096;28;20062;-39
2022/09/23 08:14:21;;;;;;;8.10;4.43;;;13.00;99.90;;;12.60;81.88;97404.63;5067948;28;20035;-40
2022/09/23 08:16:47;;;;;;;7.20;3.60;;;13.10;99.90;;;12.68;82.45;97402.47;5071897;28;20141;-41
2022/09/23 08:19:13;;;;;;;6.32;3.30;;;13.10;99.90;;;12.76;83.49;97402.16;5068549;28;20033;-40
2022/09/23 08:21:40;;;;;;;7.60;4.03;;;13.20;99.90;;;12.82;81.65;97414.22;5066409;28;20040;-41
2022/09/23 08:24:08;;;;;;;9.57;3.90;;;13.20;99.90;;;12.86;81.56;97410.50;5066607;28;20020;-41
2022/09/23 08:26:34;;;;;;;8.18;3.10;;;13.30;99.90;;;12.92;82.49;97405.78;5063016;28;20035;-41
2022/09/23 08:29:01;;;;;;;7.43;3.30;;;13.40;99.90;;;13.04;82.97;97406.16;5056536;28;20451;-41
2022/09/23 08:31:26;;;;;;;6.18;4.18;;;13.40;99.90;;;13.12;81.24;97409.31;5062981;28;20154;-41
2022/09/23 08:33:59;;;;;;;5.53;3.10;;;13.60;99.90;;;13.25;81.22;97406.94;5070994;28;20043;-41
2022/09/23 08:36:25;;;;;;;;;;;13.60;99.90;;;13.27;79.92;97403.28;5072254;28;20032;-41
2022/09/23 08:38:51;;;;;;;6.82;3.58;;;13.70;99.90;;;13.36;79.48;97394.06;5064624;28;19916;-42
2022/09/23 08:41:49;;;;;;;8.73;3.35;;;13.80;99.90;;;13.49;79.78;97396.97;5068907;28;20078;-41
2022/09/23 08:44:18;;;;;;;7.80;3.60;;;13.90;99.90;;;13.58;78.33;97395.66;5038988;28;20041;-41
2022/09/23 08:47:28;;;;;;;6.47;3.55;;;14.00;99.90;;;13.67;77.88;97397.84;5063416;28;20028;-41
2022/09/23 08:50:11;;;;;;;7.38;2.85;;;14.10;99.90;;;13.78;77.01;97399.97;5068862;28;20178;-41
2022/09/23 08:53:02;;;;;;;7.65;3.10;;;14.20;99.90;;;13.81;76.16;97392.72;5066452;28;20468;-38
2022/09/23 08:55:41;;;;;;;4.78;2.97;;;14.30;99.90;;;13.94;75.64;97401.78;5066157;28;20566;-39
2022/09/23 08:58:44;;;;;;;4.00;2.90;;;14.40;99.90;;;13.94;73.40;97407.09;5056707;28;20101;-39
2022/09/23 09:01:43;;;;;;;6.13;3.10;;;14.40;99.90;;;13.96;73.43;97398.19;5069049;28;20064;-44
2022/09/23 09:04:26;;;;;;;4.57;2.72;;;14.40;99.90;;;14.02;74.63;97406.69;5060826;28;20092;-40
2022/09/23 09:06:56;;;;;;;3.83;2.40;;;14.40;99.90;;;14.07;73.92;97406.47;5067118;28;20065;-39
2022/09/23 09:09:44;;;;;;;5.30;2.80;;;14.40;99.90;;;14.12;73.88;97393.81;5069605;28;20020;-39
2022/09/23 09:12:23;;;;;;;9.98;3.38;;;14.50;99.90;;;14.20;72.16;97399.59;5067393;28;20528;-39
2022/09/23 09:15:12;;;;;;;5.97;2.65;;;14.60;99.90;;;14.32;71.90;97393.66;5063548;28;20449;-39
2022/09/23 09:17:54;;;;;;;3.85;2.80;;;14.70;99.90;;;14.38;68.87;97403.09;5055910;28;20036;-39
2022/09/23 09:20:50;;;;;;;5.72;2.20;;;14.80;99.90;;;14.43;67.48;97401.06;5060156;28;20414;-39
2022/09/23 09:23:52;;;;;;;4.03;2.28;;;14.90;99.90;;;14.46;69.16;97397.38;5069580;28;20812;-39
2022/09/23 09:26:23;;;;;;;4.78;2.33;;;14.90;99.90;;;14.47;68.49;97394.66;5061595;28;20036;-40
2022/09/23 09:29:12;;;;;;;3.45;2.17;;;14.90;99.90;;;14.52;69.05;97387.31;5066902;28;20032;-40
2022/09/23 09:31:43;;;;;;;3.35;2.10;;;14.90;99.90;;;14.55;69.91;97385.41;5066384;28;20033;-39
2022/09/23 09:34:19;;;;;;;4.75;2.38;;;14.90;99.90;;;14.55;67.49;97380.97;5066098;28;23947;-40
2022/09/23 09:37:17;;;;;;;4.15;2.30;;;14.90;99.90;;;14.62;69.99;97371.75;5058991;28;20036;-39
2022/09/23 09:39:43;;;;;;;3.20;2.00;;;15.00;99.90;;;14.76;69.68;97371.03;5066518;28;20327;-40
2022/09/23 09:42:23;;;;;;;3.17;2.05;;;15.20;99.90;;;14.91;68.83;97366.66;5072512;28;20027;-39
2022/09/23 09:45:00;;;;;;;4.30;1.83;;;15.30;99.90;;;15.09;68.59;97370.09;5064647;28;20031;-39
2022/09/23 09:47:55;;;;;;;3.20;1.88;;;15.40;99.90;;;15.18;67.55;97369.63;5063360;28;20047;-39
2022/09/23 09:50:50;;;;;;;2.47;1.70;;;15.50;99.90;;;15.26;66.25;97370.03;5086443;28;20036;-39
2022/09/23 09:53:30;;;;;;;3.47;2.08;;;15.60;99.90;;;15.26;65.05;97366.53;5068528;28;20052;-39
2022/09/23 09:56:13;;;;;;;1.98;1.60;;;15.60;99.90;;;15.26;65.28;97361.22;5070654;28;20027;-39
2022/09/23 09:58:59;;;;;;;4.70;2.15;;;15.60;99.90;;;15.27;68.33;97358.47;5063352;28;20028;-39
2022/09/23 10:01:32;;;;;;;2.67;1.70;;;15.60;99.90;;;15.33;67.25;97359.91;5063971;28;20043;-40
2022/09/23 10:03:59;;;;;;;;;;;15.70;99.90;;;15.33;67.02;97356.41;5066093;28;20031;-39
2022/09/23 10:06:34;;;;;;;7.60;2.45;;;15.80;99.90;;;15.39;67.05;97343.59;5066479;28;19916;-39
2022/09/23 10:09:03;;;;;;;2.22;1.98;;;15.80;99.90;;;15.51;66.16;97346.53;5063704;28;20751;-39
2022/09/23 10:11:30;;;;;;;5.75;2.22;;;15.90;99.90;;;15.45;65.47;97353.03;5063603;28;20032;-40
2022/09/23 10:14:08;;;;;;;3.70;2.20;;;15.80;99.90;;;15.43;66.34;97352.25;5057812;28;20158;-39
2022/09/23 10:16:34;;;;;;;5.20;1.90;;;15.80;99.90;;;15.43;65.82;97353.16;5067539;28;20102;-39
2022/09/23 10:19:12;;;;;;;4.55;2.03;;;15.80;99.90;;;15.46;65.56;97352.94;5068360;28;20027;-39
2022/09/23 10:21:41;;;;;;;3.30;2.13;;;15.80;99.90;;;15.44;64.11;97344.22;5069001;28;20731;-39
2022/09/23 10:24:07;;;;;;;4.32;2.60;;;15.80;99.90;;;15.49;64.04;97337.75;5067505;28;20067;-39
2022/09/23 10:26:56;;;;;;;3.00;2.15;;;15.90;99.90;;;15.48;65.60;97339.56;5063112;28;20028;-39
2022/09/23 10:29:40;;;;;;;5.28;2.45;;;15.80;99.90;;;15.45;64.98;97337.97;5068514;28;20533;-39
2022/09/23 10:32:39;;;;;;;3.13;2.00;;;15.90;99.90;;;15.52;65.51;97342.91;5066043;28;20039;-40
2022/09/23 10:35:07;;;;;;;3.50;2.00;;;15.90;99.90;;;15.64;65.84;97336.88;5057035;28;20117;-42
2022/09/23 10:37:58;;;;;;;5.28;2.22;;;16.00;99.90;;;15.63;64.52;97337.81;5050537;28;20633;-44
2022/09/23 10:46:37;;;;;;;4.30;2.63;;;16.00;99.90;;;15.58;66.57;97331.94;5069063;28;20078;-39
2022/09/23 10:47:01;;;;;;;2.75;1.70;;;16.00;99.90;;;15.68;66.14;97333.09;5070534;28;20046;-39
2022/09/23 10:49:55;;;;;;;5.03;2.75;;;16.10;99.90;;;15.75;65.47;97326.50;5067676;28;20153;-39
2022/09/23 10:53:02;;;;;;;3.80;2.28;;;16.20;99.90;;;15.93;65.07;97332.53;5067054;28;20040;-39
2022/09/23 10:56:01;;;;;;;5.32;2.70;;;16.40;99.90;;;16.02;63.63;97329.34;5066416;28;20858;-40
2022/09/23 10:58:58;;;;;;;4.55;3.08;;;16.50;99.90;;;16.08;63.39;97324.56;5063856;28;20123;-39
2022/09/23 11:01:35;;;;;;;5.57;2.55;;;16.50;99.90;;;15.99;63.57;97321.53;5071256;28;20028;-39